createdAt,value
2022-11-13T00:01:10.694Z,5.43
2022-11-13T00:03:37.938Z,6.45
2022-11-13T00:06:05.187Z,5.97
2022-11-13T00:08:32.191Z,6.37
2022-11-13T00:11:07.690Z,7.30
2022-11-13T00:13:35.759Z,6.28
2022-11-13T00:16:05.422Z,6.20
2022-11-13T00:18:35.302Z,5.87
2022-11-13T00:21:07.386Z,6.03
2022-11-13T00:23:35.918Z,5.40
2022-11-13T00:26:07.222Z,4.97
2022-11-13T00:28:34.214Z,5.90
2022-11-13T00:31:02.484Z,4.35
2022-11-13T00:34:01.798Z,4.60
2022-11-13T00:36:23.535Z,4.43
2022-11-13T00:38:53.114Z,3.87
2022-11-13T00:41:20.256Z,3.80
2022-11-13T00:43:47.173Z,4.35
2022-11-13T00:46:14.149Z,3.75
2022-11-13T00:48:41.290Z,3.67
2022-11-13T00:51:08.305Z,3.55
2022-11-13T00:53:35.551Z,3.72
2022-11-13T00:56:02.740Z,3.62
2022-11-13T00:58:29.984Z,3.40
2022-11-13T01:01:11.347Z,3.87
2022-11-13T01:03:39.887Z,3.65
2022-11-13T01:06:13.760Z,3.20
2022-11-13T01:08:41.620Z,3.78
2022-11-13T01:11:13.924Z,3.80
2022-11-13T01:13:42.070Z,3.42
2022-11-13T01:16:11.647Z,3.83
2022-11-13T01:18:39.538Z,3.95
2022-11-13T01:21:18.543Z,3.80
2022-11-13T01:23:45.840Z,4.70
2022-11-13T01:26:21.826Z,4.40
2022-11-13T01:28:49.045Z,4.10
2022-11-13T01:31:19.248Z,4.53
2022-11-13T01:33:47.759Z,4.60
2022-11-13T01:36:23.606Z,4.53
2022-11-13T01:38:51.502Z,4.95
2022-11-13T01:41:26.109Z,4.82
2022-11-13T01:43:54.585Z,4.60
2022-11-13T01:46:31.867Z,4.65
2022-11-13T01:49:12.494Z,5.47
2022-11-13T01:51:44.501Z,5.15
2022-11-13T01:54:16.624Z,4.95
2022-11-13T01:56:44.193Z,4.70
2022-11-13T01:59:23.167Z,4.70
2022-11-13T02:01:50.541Z,5.65
2022-11-13T02:04:17.476Z,5.68
2022-11-13T02:06:47.052Z,5.20
2022-11-13T02:09:16.037Z,4.72
2022-11-13T02:11:43.235Z,4.80
2022-11-13T02:14:11.726Z,5.47
2022-11-13T02:16:41.271Z,5.28
2022-11-13T02:19:14.624Z,5.10
2022-11-13T02:21:51.497Z,5.37
2022-11-13T02:24:32.659Z,5.55
2022-11-13T02:27:05.651Z,5.40
2022-11-13T02:29:32.582Z,6.65
2022-11-13T02:31:59.592Z,5.90
2022-11-13T02:34:26.489Z,5.35
2022-11-13T02:36:53.441Z,5.57
2022-11-13T02:39:20.468Z,4.93
2022-11-13T02:41:47.363Z,5.07
2022-11-13T02:44:14.296Z,5.87
2022-11-13T02:46:41.220Z,4.75
2022-11-13T02:49:08.118Z,5.47
2022-11-13T02:51:35.082Z,5.68
2022-11-13T02:54:02.188Z,4.35
2022-11-13T02:56:29.112Z,4.75
2022-11-13T02:58:56.046Z,5.10
2022-11-13T03:01:23.090Z,5.00
2022-11-13T03:03:58.292Z,4.60
2022-11-13T03:06:25.548Z,4.40
2022-11-13T03:08:52.526Z,4.90
2022-11-13T03:11:19.398Z,4.37
2022-11-13T03:13:46.296Z,4.55
2022-11-13T03:16:16.118Z,5.32
2022-11-13T03:18:43.463Z,5.70
2022-11-13T03:21:15.671Z,4.90
2022-11-13T03:23:45.353Z,4.20
2022-11-13T03:26:14.429Z,4.87
2022-11-13T03:28:41.413Z,4.55
2022-11-13T03:31:08.636Z,5.45
2022-11-13T03:33:35.738Z,5.40
2022-11-13T03:36:02.744Z,5.07
2022-11-13T03:38:30.116Z,6.15
2022-11-13T03:40:57.320Z,5.43
2022-11-13T03:43:24.315Z,5.55
2022-11-13T03:45:51.507Z,6.25
2022-11-13T03:48:18.910Z,5.62
2022-11-13T03:50:48.823Z,5.43
2022-11-13T03:53:16.061Z,5.80
2022-11-13T03:55:43.897Z,5.03
2022-11-13T03:58:11.357Z,5.18
2022-11-13T04:00:39.226Z,5.22
2022-11-13T04:03:06.484Z,5.87
2022-11-13T04:05:33.914Z,4.18
2022-11-13T04:08:00.909Z,4.43
2022-11-13T04:10:27.881Z,5.20
2022-11-13T04:12:54.809Z,4.25
2022-11-13T04:15:22.120Z,4.53
2022-11-13T04:17:49.727Z,5.37
2022-11-13T04:20:16.964Z,5.37
2022-11-13T04:22:43.893Z,5.90
2022-11-13T04:25:10.855Z,6.10
2022-11-13T04:27:37.725Z,7.65
2022-11-13T04:30:05.709Z,7.82
2022-11-13T04:32:32.923Z,7.50
2022-11-13T04:34:59.870Z,6.75
2022-11-13T04:37:26.764Z,8.93
2022-11-13T04:39:53.758Z,8.27
2022-11-13T04:42:39.227Z,8.73
2022-11-13T04:45:06.647Z,8.40
2022-11-13T04:47:33.543Z,9.43
2022-11-13T04:50:00.424Z,9.10
2022-11-13T04:52:28.768Z,10.55
2022-11-13T04:54:55.984Z,9.70
2022-11-13T04:57:23.363Z,9.93
2022-11-13T04:59:50.309Z,10.25
2022-11-13T05:02:17.308Z,11.38
2022-11-13T05:04:44.255Z,11.15
2022-11-13T05:07:11.903Z,11.95
2022-11-13T05:09:38.921Z,12.02
2022-11-13T05:12:08.071Z,12.63
2022-11-13T05:14:39.628Z,12.68
2022-11-13T05:17:07.524Z,12.75
2022-11-13T05:19:34.753Z,13.77
2022-11-13T05:22:02.041Z,13.43
2022-11-13T05:24:29.048Z,13.48
2022-11-13T05:26:56.133Z,12.60
2022-11-13T05:29:23.511Z,11.80
2022-11-13T05:31:50.502Z,13.65
2022-11-13T05:34:17.645Z,12.88
2022-11-13T05:36:44.552Z,14.00
2022-11-13T05:39:11.893Z,13.10
2022-11-13T05:41:38.811Z,12.77
2022-11-13T05:44:05.712Z,14.80
2022-11-13T05:46:32.920Z,12.57
2022-11-13T05:49:01.588Z,13.80
2022-11-13T05:51:34.071Z,13.20
2022-11-13T05:54:01.440Z,15.55
2022-11-13T05:56:33.821Z,13.52
2022-11-13T05:59:02.043Z,14.80
2022-11-13T06:01:39.809Z,15.40
2022-11-13T06:04:08.027Z,13.68
2022-11-13T06:06:35.037Z,17.10
2022-11-13T06:09:05.252Z,17.52
2022-11-13T06:11:32.814Z,18.80
2022-11-13T06:14:00.504Z,18.05
2022-11-13T06:16:30.322Z,19.75
2022-11-13T06:18:59.447Z,21.98
2022-11-13T06:21:29.245Z,23.42
2022-11-13T06:23:57.843Z,21.90
2022-11-13T06:26:31.711Z,26.33
2022-11-13T06:29:02.483Z,26.25
2022-11-13T06:31:31.996Z,25.23
2022-11-13T06:33:59.869Z,27.23
2022-11-13T06:36:30.104Z,25.90
2022-11-13T06:38:57.747Z,27.02
2022-11-13T06:41:30.005Z,27.25
2022-11-13T06:44:02.270Z,26.35
2022-11-13T06:46:31.350Z,26.60
2022-11-13T06:48:58.925Z,27.85
2022-11-13T06:51:28.319Z,27.62
2022-11-13T06:53:55.285Z,28.38
2022-11-13T06:56:22.594Z,27.37
2022-11-13T06:58:49.526Z,28.95
2022-11-13T07:01:19.370Z,27.37
2022-11-13T07:03:46.595Z,30.20
2022-11-13T07:06:16.270Z,29.10
2022-11-13T07:08:44.232Z,30.75
2022-11-13T07:11:13.538Z,31.62
2022-11-13T07:13:40.936Z,31.90
2022-11-13T07:16:17.002Z,33.92
2022-11-13T07:18:54.498Z,30.48
2022-11-13T07:21:22.605Z,32.88
2022-11-13T07:23:50.722Z,34.13
2022-11-13T07:26:18.266Z,31.70
2022-11-13T07:28:45.766Z,31.40
2022-11-13T07:31:14.742Z,31.65
2022-11-13T07:33:41.973Z,32.00
2022-11-13T07:36:09.977Z,31.60
2022-11-13T07:38:37.375Z,30.95
2022-11-13T07:41:04.535Z,32.60
2022-11-13T07:43:31.590Z,29.48
2022-11-13T07:45:59.591Z,30.15
2022-11-13T07:48:28.131Z,29.55
2022-11-13T07:50:55.670Z,30.98
2022-11-13T07:53:23.226Z,29.85
2022-11-13T07:55:50.595Z,34.75
2022-11-13T07:58:17.615Z,32.28
2022-11-13T08:00:44.946Z,30.00
2022-11-13T08:03:17.083Z,34.20
2022-11-13T08:05:44.152Z,30.20
2022-11-13T08:08:15.065Z,29.30
2022-11-13T08:10:42.227Z,27.33
2022-11-13T08:13:11.016Z,27.08
2022-11-13T08:15:38.354Z,28.67
2022-11-13T08:18:06.005Z,31.85
2022-11-13T08:20:33.169Z,29.42
2022-11-13T08:23:02.190Z,32.67
2022-11-13T08:25:30.195Z,28.92
2022-11-13T08:27:57.425Z,29.65
2022-11-13T08:30:26.487Z,30.42
2022-11-13T08:32:53.645Z,28.65
2022-11-13T08:35:25.257Z,29.40
2022-11-13T08:38:03.376Z,29.30
2022-11-13T08:40:30.391Z,29.50
2022-11-13T08:43:01.358Z,29.30
2022-11-13T08:45:29.477Z,29.58
2022-11-13T08:48:03.952Z,28.58
2022-11-13T08:50:32.213Z,28.67
2022-11-13T08:53:00.256Z,29.67
2022-11-13T08:55:28.085Z,28.30
2022-11-13T08:57:57.867Z,29.08
2022-11-13T09:00:24.772Z,28.45
2022-11-13T09:02:59.598Z,29.92
2022-11-13T09:05:27.376Z,29.33
2022-11-13T09:08:01.591Z,26.80
2022-11-13T09:10:29.248Z,27.23
2022-11-13T09:13:01.988Z,26.42
2022-11-13T09:15:30.425Z,26.37
2022-11-13T09:18:01.385Z,24.15
2022-11-13T09:20:30.230Z,24.63
2022-11-13T09:23:01.172Z,24.23
2022-11-13T09:25:32.805Z,25.17
2022-11-13T09:28:04.165Z,24.55
2022-11-13T09:30:31.380Z,29.33
2022-11-13T09:33:00.244Z,27.48
2022-11-13T09:35:34.768Z,26.15
2022-11-13T09:38:11.640Z,26.87
2022-11-13T09:40:53.659Z,26.48
2022-11-13T09:43:26.412Z,26.95
2022-11-13T09:45:58.465Z,26.02
2022-11-13T09:48:38.837Z,25.12
2022-11-13T09:51:15.859Z,25.73
2022-11-13T09:53:43.558Z,26.42
2022-11-13T09:56:27.383Z,23.75
2022-11-13T09:59:23.628Z,25.42
2022-11-13T10:02:29.283Z,23.90
2022-11-13T10:05:00.471Z,26.30
2022-11-13T10:07:41.642Z,25.60
2022-11-13T10:10:17.810Z,24.90
2022-11-13T10:12:46.790Z,23.48
2022-11-13T10:15:14.570Z,23.50
2022-11-13T10:18:11.438Z,23.98
2022-11-13T10:20:51.736Z,22.95
2022-11-13T10:23:33.477Z,20.37
2022-11-13T10:26:19.537Z,19.05
2022-11-13T10:28:51.364Z,21.30
2022-11-13T10:31:18.773Z,20.42
2022-11-13T10:33:45.713Z,22.15
2022-11-13T10:36:35.126Z,20.27
2022-11-13T10:39:06.465Z,19.33
2022-11-13T10:41:33.853Z,20.50
2022-11-13T10:44:06.733Z,20.92
2022-11-13T10:46:33.739Z,20.33
2022-11-13T10:49:13.221Z,20.05
2022-11-13T10:51:40.707Z,21.65
2022-11-13T10:54:31.963Z,19.33
2022-11-13T10:57:01.407Z,17.73
2022-11-13T10:59:39.627Z,18.77
2022-11-13T11:02:17.384Z,19.77
2022-11-13T11:04:44.814Z,18.05
2022-11-13T11:07:21.791Z,18.85
2022-11-13T11:09:51.049Z,17.85
2022-11-13T11:12:30.195Z,18.60
2022-11-13T11:14:57.890Z,18.67
2022-11-13T11:17:27.695Z,17.40
2022-11-13T11:20:20.606Z,17.08
2022-11-13T11:22:52.893Z,15.07
2022-11-13T11:25:43.872Z,16.95
2022-11-13T11:28:37.368Z,15.65
2022-11-13T11:31:36.385Z,12.23
2022-11-13T11:34:22.265Z,14.13
2022-11-13T11:36:53.620Z,13.90
2022-11-13T11:39:29.320Z,13.48
2022-11-13T11:42:00.843Z,11.35
2022-11-13T11:44:50.346Z,12.68
2022-11-13T11:47:18.521Z,13.57
2022-11-13T11:49:45.860Z,14.40
2022-11-13T11:52:29.761Z,14.20
2022-11-13T11:55:29.560Z,14.45
2022-11-13T11:58:05.420Z,15.10
2022-11-13T12:00:33.442Z,14.57
2022-11-13T12:03:19.368Z,13.75
2022-11-13T12:06:03.484Z,13.00
2022-11-13T12:08:50.534Z,15.57
2022-11-13T12:11:23.542Z,14.87
2022-11-13T12:13:59.083Z,14.25
2022-11-13T12:17:00.842Z,14.38
2022-11-13T12:20:00.879Z,13.90
2022-11-13T12:22:30.799Z,12.93
2022-11-13T12:25:10.380Z,13.80
2022-11-13T12:27:47.769Z,12.37
2022-11-13T12:30:18.119Z,14.55
2022-11-13T12:32:53.765Z,14.65
2022-11-13T12:35:23.740Z,16.37
2022-11-13T12:38:21.083Z,16.05
2022-11-13T12:41:17.666Z,16.45
2022-11-13T12:44:03.301Z,16.35
2022-11-13T12:46:37.183Z,16.08
2022-11-13T12:49:35.198Z,16.90
2022-11-13T12:52:19.130Z,14.98
2022-11-13T12:54:46.308Z,18.67
2022-11-13T12:57:17.316Z,22.37
2022-11-13T12:59:46.289Z,22.30
2022-11-13T13:02:48.409Z,27.25
2022-11-13T13:05:33.900Z,23.90
2022-11-13T13:08:26.236Z,19.23
2022-11-13T13:11:12.184Z,22.08
2022-11-13T13:14:06.727Z,26.58
2022-11-13T13:16:33.675Z,29.35
2022-11-13T13:19:32.700Z,30.17
2022-11-13T13:21:59.638Z,30.60
2022-11-13T13:24:35.743Z,30.15
2022-11-13T13:27:02.725Z,31.25
2022-11-13T13:29:30.493Z,33.20
2022-11-13T13:32:20.971Z,32.53
2022-11-13T13:34:56.885Z,32.75
2022-11-13T13:37:55.027Z,31.77
2022-11-13T13:40:27.988Z,30.98
2022-11-13T13:43:25.502Z,31.42
2022-11-13T13:46:15.448Z,27.90
2022-11-13T13:48:45.933Z,28.67
2022-11-13T13:51:21.192Z,27.08
2022-11-13T13:53:49.309Z,28.52
2022-11-13T13:56:17.019Z,25.20
2022-11-13T13:58:44.074Z,27.37
2022-11-13T14:01:25.523Z,26.20
2022-11-13T14:04:17.822Z,27.90
2022-11-13T14:07:00.343Z,25.90
2022-11-13T14:09:29.695Z,28.98
2022-11-13T14:12:06.190Z,27.40
2022-11-13T14:14:39.468Z,25.45
2022-11-13T14:17:07.104Z,25.35
2022-11-13T14:19:34.061Z,25.95
2022-11-13T14:22:04.894Z,23.08
2022-11-13T14:24:43.897Z,24.48
2022-11-13T14:27:18.363Z,25.83
2022-11-13T14:29:55.391Z,25.50
2022-11-13T14:32:27.769Z,27.42
2022-11-13T14:34:59.128Z,26.65
2022-11-13T14:37:31.754Z,25.10
2022-11-13T14:40:03.070Z,25.12
2022-11-13T14:42:39.037Z,24.42
2022-11-13T14:45:16.638Z,26.48
2022-11-13T14:47:44.059Z,27.77
2022-11-13T14:50:32.403Z,28.10
2022-11-13T14:53:05.618Z,26.62
2022-11-13T14:55:54.013Z,26.65
2022-11-13T14:58:31.571Z,23.67
2022-11-13T15:01:00.070Z,24.63
2022-11-13T15:03:28.116Z,25.33
2022-11-13T15:05:55.475Z,27.17
2022-11-13T15:08:22.397Z,25.37
2022-11-13T15:10:49.590Z,24.27
2022-11-13T15:13:18.424Z,24.20
2022-11-13T15:15:45.644Z,25.70
2022-11-13T15:18:18.319Z,25.12
2022-11-13T15:20:45.751Z,23.02
2022-11-13T15:23:15.744Z,21.33
2022-11-13T15:25:43.277Z,22.10
2022-11-13T15:28:10.715Z,24.10
2022-11-13T15:30:37.627Z,24.85
2022-11-13T15:33:14.928Z,21.55
2022-11-13T15:35:42.949Z,22.55
2022-11-13T15:38:12.926Z,23.90
2022-11-13T15:40:40.126Z,25.15
2022-11-13T15:43:14.935Z,26.10
2022-11-13T15:45:44.428Z,28.50
2022-11-13T15:48:13.575Z,25.48
2022-11-13T15:50:40.644Z,25.15
2022-11-13T15:53:12.414Z,26.10
2022-11-13T15:55:40.984Z,26.17
2022-11-13T15:58:15.748Z,23.75
2022-11-13T16:00:43.061Z,23.98
2022-11-13T16:03:12.992Z,23.80
2022-11-13T16:05:39.942Z,25.70
2022-11-13T16:08:15.210Z,25.77
2022-11-13T16:10:42.164Z,26.62
2022-11-13T16:13:09.075Z,26.08
2022-11-13T16:15:36.108Z,24.70
2022-11-13T16:18:03.179Z,26.55
2022-11-13T16:20:30.213Z,27.65
2022-11-13T16:22:57.119Z,28.92
2022-11-13T16:25:24.023Z,22.83
2022-11-13T16:27:52.010Z,20.55
2022-11-13T16:30:21.303Z,23.23
2022-11-13T16:32:48.673Z,20.42
2022-11-13T16:35:17.416Z,22.08
2022-11-13T16:37:44.799Z,20.62
2022-11-13T16:40:21.864Z,17.90
2022-11-13T16:42:49.121Z,20.25
2022-11-13T16:45:17.025Z,17.08
2022-11-13T16:47:44.454Z,19.17
2022-11-13T16:50:26.919Z,17.62
2022-11-13T16:52:53.864Z,18.83
2022-11-13T16:55:20.801Z,17.80
2022-11-13T16:57:47.814Z,18.50
2022-11-13T17:00:16.992Z,19.23
2022-11-13T17:02:44.492Z,17.90
2022-11-13T17:05:15.931Z,18.95
2022-11-13T17:07:43.134Z,18.33
2022-11-13T17:10:34.053Z,19.08
2022-11-13T17:13:01.065Z,18.65
2022-11-13T17:15:28.145Z,17.77
2022-11-13T17:18:00.145Z,17.90
2022-11-13T17:20:27.225Z,16.42
2022-11-13T17:22:54.513Z,16.40
2022-11-13T17:25:26.497Z,15.43
2022-11-13T17:27:53.694Z,18.15
2022-11-13T17:30:20.774Z,15.98
2022-11-13T17:32:47.655Z,15.50
2022-11-13T17:35:14.617Z,16.23
2022-11-13T17:37:41.651Z,13.23
2022-11-13T17:40:11.181Z,14.70
2022-11-13T17:42:38.058Z,16.70
2022-11-13T17:45:06.082Z,22.52
2022-11-13T17:47:34.458Z,16.23
2022-11-13T17:50:07.057Z,16.33
2022-11-13T17:52:34.809Z,12.13
2022-11-13T17:55:06.038Z,16.55
2022-11-13T17:57:33.768Z,14.10
2022-11-13T18:00:00.709Z,14.90
2022-11-13T18:02:27.630Z,16.00
2022-11-13T18:04:56.377Z,14.82
2022-11-13T18:07:23.354Z,15.40
2022-11-13T18:09:50.262Z,15.45
2022-11-13T18:12:17.151Z,16.50
2022-11-13T18:14:44.101Z,16.70
2022-11-13T18:17:10.959Z,16.05
2022-11-13T18:19:37.860Z,18.37
2022-11-13T18:22:04.825Z,18.70
2022-11-13T18:24:31.871Z,18.10
2022-11-13T18:26:58.941Z,17.77
2022-11-13T18:29:26.110Z,31.60
2022-11-13T18:31:53.040Z,17.92
2022-11-13T18:34:19.954Z,20.90
2022-11-13T18:36:46.927Z,19.85
2022-11-13T18:39:16.805Z,18.70
2022-11-13T18:41:43.955Z,19.02
2022-11-13T18:44:11.092Z,19.23
2022-11-13T18:46:38.459Z,16.55
2022-11-13T18:49:05.778Z,19.42
2022-11-13T18:51:36.669Z,18.23
2022-11-13T18:54:09.447Z,21.73
2022-11-13T18:56:36.709Z,21.35
2022-11-13T18:59:03.665Z,18.77
2022-11-13T19:01:33.672Z,19.02
2022-11-13T19:04:21.733Z,19.25
2022-11-13T19:06:50.142Z,17.02
2022-11-13T19:09:18.157Z,19.80
2022-11-13T19:11:45.832Z,18.60
2022-11-13T19:14:18.237Z,18.27
2022-11-13T19:16:45.394Z,18.48
2022-11-13T19:19:23.417Z,17.02
2022-11-13T19:21:50.620Z,19.83
2022-11-13T19:24:18.078Z,17.77
2022-11-13T19:26:46.181Z,17.33
2022-11-13T19:29:13.925Z,17.70
2022-11-13T19:31:41.163Z,16.67
2022-11-13T19:34:08.595Z,16.83
2022-11-13T19:36:36.612Z,17.35
2022-11-13T19:39:04.428Z,17.90
2022-11-13T19:41:31.446Z,16.35
2022-11-13T19:43:59.824Z,15.25
2022-11-13T19:46:27.414Z,16.02
2022-11-13T19:48:54.443Z,14.60
2022-11-13T19:51:23.601Z,16.87
2022-11-13T19:53:59.498Z,17.00
2022-11-13T19:56:28.536Z,15.70
2022-11-13T19:58:56.100Z,15.02
2022-11-13T20:01:28.306Z,14.05
2022-11-13T20:03:58.472Z,15.90
2022-11-13T20:06:26.611Z,14.38
2022-11-13T20:08:53.654Z,14.77
2022-11-13T20:11:20.784Z,15.70
2022-11-13T20:13:47.953Z,13.70
2022-11-13T20:16:16.800Z,14.43
2022-11-13T20:18:44.722Z,14.18
2022-11-13T20:21:11.721Z,15.82
2022-11-13T20:23:39.058Z,14.85
2022-11-13T20:26:08.653Z,14.65
2022-11-13T20:28:35.628Z,13.13
2022-11-13T20:31:06.931Z,13.73
2022-11-13T20:33:34.763Z,13.50
2022-11-13T20:36:03.095Z,14.25
2022-11-13T20:38:31.056Z,16.40
2022-11-13T20:40:58.296Z,16.75
2022-11-13T20:43:25.285Z,14.77
2022-11-13T20:46:01.730Z,14.15
2022-11-13T20:48:29.164Z,13.95
2022-11-13T20:50:56.208Z,14.00
2022-11-13T20:53:23.204Z,12.93
2022-11-13T20:55:50.090Z,16.20
2022-11-13T20:58:16.991Z,19.33
2022-11-13T21:00:43.921Z,21.92
2022-11-13T21:03:10.800Z,17.35
2022-11-13T21:05:37.689Z,17.95
2022-11-13T21:08:04.708Z,23.05
2022-11-13T21:10:33.202Z,11.60
2022-11-13T21:13:00.140Z,12.10
2022-11-13T21:15:27.069Z,12.05
2022-11-13T21:17:53.922Z,20.20
2022-11-13T21:20:20.833Z,13.15
2022-11-13T21:22:47.770Z,10.23
2022-11-13T21:25:15.099Z,10.70
2022-11-13T21:27:42.025Z,11.52
2022-11-13T21:30:09.324Z,15.00
2022-11-13T21:32:36.903Z,17.92
2022-11-13T21:35:03.928Z,17.17
2022-11-13T21:37:33.204Z,11.52
2022-11-13T21:40:00.166Z,11.50
2022-11-13T21:42:27.121Z,10.00
2022-11-13T21:44:54.037Z,10.48
2022-11-13T21:47:20.940Z,19.37
2022-11-13T21:49:48.056Z,16.55
2022-11-13T21:52:14.993Z,18.25
2022-11-13T21:54:41.862Z,15.65
2022-11-13T21:57:08.843Z,20.12
2022-11-13T21:59:35.804Z,27.08
2022-11-13T22:02:02.773Z,22.77
2022-11-13T22:04:29.753Z,15.55
2022-11-13T22:06:56.731Z,13.57
2022-11-13T22:09:25.727Z,11.32
2022-11-13T22:11:53.019Z,13.27
2022-11-13T22:14:20.081Z,13.05
2022-11-13T22:16:48.138Z,12.77
2022-11-13T22:19:25.285Z,13.32
2022-11-13T22:21:54.384Z,12.75
2022-11-13T22:24:21.544Z,15.05
2022-11-13T22:26:48.597Z,13.57
2022-11-13T22:29:15.574Z,14.85
2022-11-13T22:31:44.966Z,14.13
2022-11-13T22:34:12.019Z,13.80
2022-11-13T22:36:38.950Z,16.73
2022-11-13T22:39:06.292Z,14.63
2022-11-13T22:41:35.387Z,13.60
2022-11-13T22:44:05.113Z,14.77
2022-11-13T22:46:34.561Z,15.77
2022-11-13T22:49:03.700Z,14.95
2022-11-13T22:51:39.117Z,15.38
2022-11-13T22:54:08.793Z,16.70
2022-11-13T22:56:36.794Z,17.02
2022-11-13T22:59:06.885Z,15.95
2022-11-13T23:01:35.823Z,16.98
2022-11-13T23:04:06.646Z,17.20
2022-11-13T23:06:35.525Z,17.60
2022-11-13T23:09:03.523Z,18.65
2022-11-13T23:11:41.218Z,16.80
2022-11-13T23:14:11.628Z,15.77
2022-11-13T23:16:38.642Z,15.90
2022-11-13T23:19:05.770Z,15.85
2022-11-13T23:21:32.978Z,15.98
2022-11-13T23:24:00.204Z,15.80
2022-11-13T23:26:28.518Z,15.68
2022-11-13T23:28:56.420Z,16.10
2022-11-13T23:31:24.937Z,17.58
2022-11-13T23:33:52.096Z,16.08
2022-11-13T23:36:19.408Z,16.95
2022-11-13T23:38:46.435Z,16.25
2022-11-13T23:41:13.563Z,17.02
2022-11-13T23:44:07.638Z,18.58
2022-11-13T23:46:27.559Z,18.33
2022-11-13T23:48:54.520Z,17.73
2022-11-13T23:51:21.422Z,17.87
2022-11-13T23:53:48.344Z,18.52
2022-11-13T23:56:15.223Z,17.65
2022-11-13T23:58:42.353Z,18.02
